sensor_id;sensor_type;location;lat;lon;timestamp;pressure;altitude;pressure_sealevel;temperature;humidity
73566;BME280;61846;52.970;-3.168;2023-08-06T00:01:10;100620.90;;;13.56;54.57
73566;BME280;61846;52.970;-3.168;2023-08-06T00:03:35;100621.70;;;13.44;54.00
73566;BME280;61846;52.970;-3.168;2023-08-06T00:06:00;100622.12;;;14.12;52.80
73566;BME280;61846;52.970;-3.168;2023-08-06T00:08:26;100627.85;;;13.47;53.64
73566;BME280;61846;52.970;-3.168;2023-08-06T00:10:52;100628.12;;;13.32;53.48
73566;BME280;61846;52.970;-3.168;2023-08-06T00:13:17;100633.08;;;13.24;54.50
73566;BME280;61846;52.970;-3.168;2023-08-06T00:15:43;100632.78;;;13.00;54.97
73566;BME280;61846;52.970;-3.168;2023-08-06T00:18:08;100634.39;;;13.39;54.89
73566;BME280;61846;52.970;-3.168;2023-08-06T00:20:34;100632.27;;;13.42;54.11
73566;BME280;61846;52.970;-3.168;2023-08-06T00:22:59;100631.61;;;12.95;56.14
73566;BME280;61846;52.970;-3.168;2023-08-06T00:25:25;100630.67;;;12.51;56.36
73566;BME280;61846;52.970;-3.168;2023-08-06T00:27:50;100631.77;;;12.41;58.10
73566;BME280;61846;52.970;-3.168;2023-08-06T00:30:16;100632.08;;;13.09;56.07
73566;BME280;61846;52.970;-3.168;2023-08-06T00:32:41;100630.47;;;13.30;55.05
73566;BME280;61846;52.970;-3.168;2023-08-06T00:35:07;100630.97;;;14.09;52.66
73566;BME280;61846;52.970;-3.168;2023-08-06T00:37:32;100632.33;;;13.62;53.41
73566;BME280;61846;52.970;-3.168;2023-08-06T00:39:58;100636.70;;;12.84;55.22
73566;BME280;61846;52.970;-3.168;2023-08-06T00:42:23;100639.07;;;13.44;53.90
73566;BME280;61846;52.970;-3.168;2023-08-06T00:44:49;100643.13;;;13.00;55.10
73566;BME280;61846;52.970;-3.168;2023-08-06T00:47:14;100643.76;;;13.02;55.24
73566;BME280;61846;52.970;-3.168;2023-08-06T00:49:40;100645.90;;;14.26;53.23
73566;BME280;61846;52.970;-3.168;2023-08-06T00:52:07;100644.02;;;14.32;51.22
73566;BME280;61846;52.970;-3.168;2023-08-06T00:54:31;100643.30;;;14.78;50.87
73566;BME280;61846;52.970;-3.168;2023-08-06T00:56:56;100643.55;;;13.84;52.66
73566;BME280;61846;52.970;-3.168;2023-08-06T00:59:22;100649.26;;;13.32;53.91
73566;BME280;61846;52.970;-3.168;2023-08-06T01:01:47;100647.74;;;13.33;53.68
73566;BME280;61846;52.970;-3.168;2023-08-06T01:04:12;100641.36;;;14.72;50.95
73566;BME280;61846;52.970;-3.168;2023-08-06T01:06:42;100643.25;;;14.93;49.99
73566;BME280;61846;52.970;-3.168;2023-08-06T01:09:11;100648.26;;;14.49;51.61
73566;BME280;61846;52.970;-3.168;2023-08-06T01:11:38;100652.34;;;14.48;51.12
73566;BME280;61846;52.970;-3.168;2023-08-06T01:13:59;100652.79;;;13.88;52.38
73566;BME280;61846;52.970;-3.168;2023-08-06T01:16:21;100652.21;;;13.79;53.05
73566;BME280;61846;52.970;-3.168;2023-08-06T01:18:47;100650.08;;;12.52;56.12
73566;BME280;61846;52.970;-3.168;2023-08-06T01:21:11;100659.06;;;12.78;56.04
73566;BME280;61846;52.970;-3.168;2023-08-06T01:23:37;100660.37;;;12.50;56.90
73566;BME280;61846;52.970;-3.168;2023-08-06T01:26:09;100664.11;;;12.79;55.69
73566;BME280;61846;52.970;-3.168;2023-08-06T01:28:33;100663.92;;;13.39;54.36
73566;BME280;61846;52.970;-3.168;2023-08-06T01:30:55;100665.79;;;12.73;55.65
73566;BME280;61846;52.970;-3.168;2023-08-06T01:33:21;100664.22;;;12.38;57.15
73566;BME280;61846;52.970;-3.168;2023-08-06T01:35:44;100666.23;;;12.64;56.06
73566;BME280;61846;52.970;-3.168;2023-08-06T01:38:10;100669.08;;;13.20;55.04
73566;BME280;61846;52.970;-3.168;2023-08-06T01:40:35;100668.02;;;12.14;57.02
73566;BME280;61846;52.970;-3.168;2023-08-06T01:43:00;100669.45;;;12.11;56.95
73566;BME280;61846;52.970;-3.168;2023-08-06T01:45:26;100670.16;;;12.02;57.32
73566;BME280;61846;52.970;-3.168;2023-08-06T01:47:52;100668.72;;;12.75;55.69
73566;BME280;61846;52.970;-3.168;2023-08-06T01:50:17;100668.84;;;12.80;55.95
73566;BME280;61846;52.970;-3.168;2023-08-06T01:52:42;100671.32;;;14.15;52.60
73566;BME280;61846;52.970;-3.168;2023-08-06T01:55:08;100673.37;;;14.17;51.55
73566;BME280;61846;52.970;-3.168;2023-08-06T01:57:33;100680.82;;;13.37;52.98
73566;BME280;61846;52.970;-3.168;2023-08-06T01:59:59;100688.32;;;13.50;52.85
73566;BME280;61846;52.970;-3.168;2023-08-06T02:02:24;100690.73;;;13.15;54.03
73566;BME280;61846;52.970;-3.168;2023-08-06T02:04:50;100691.63;;;13.50;53.05
73566;BME280;61846;52.970;-3.168;2023-08-06T02:07:15;100692.73;;;13.20;53.52
73566;BME280;61846;52.970;-3.168;2023-08-06T02:09:40;100688.44;;;12.21;56.67
73566;BME280;61846;52.970;-3.168;2023-08-06T02:12:07;100691.95;;;12.82;55.26
73566;BME280;61846;52.970;-3.168;2023-08-06T02:14:31;100691.53;;;12.67;55.11
73566;BME280;61846;52.970;-3.168;2023-08-06T02:16:56;100693.77;;;12.13;56.89
73566;BME280;61846;52.970;-3.168;2023-08-06T02:19:22;100689.07;;;12.63;55.41
73566;BME280;61846;52.970;-3.168;2023-08-06T02:21:47;100687.43;;;13.34;53.85
73566;BME280;61846;52.970;-3.168;2023-08-06T02:24:13;100686.19;;;13.42;52.87
73566;BME280;61846;52.970;-3.168;2023-08-06T02:26:39;100686.65;;;14.03;51.50
73566;BME280;61846;52.970;-3.168;2023-08-06T02:29:04;100685.30;;;13.22;53.46
73566;BME280;61846;52.970;-3.168;2023-08-06T02:31:29;100687.62;;;13.19;53.04
73566;BME280;61846;52.970;-3.168;2023-08-06T02:33:55;100686.71;;;12.97;53.59
73566;BME280;61846;52.970;-3.168;2023-08-06T02:36:20;100687.66;;;12.91;55.35
73566;BME280;61846;52.970;-3.168;2023-08-06T02:38:46;100684.97;;;13.15;54.58
73566;BME280;61846;52.970;-3.168;2023-08-06T02:41:11;100688.42;;;13.15;53.53
73566;BME280;61846;52.970;-3.168;2023-08-06T02:43:37;100691.87;;;13.72;52.72
73566;BME280;61846;52.970;-3.168;2023-08-06T02:46:02;100690.78;;;12.58;54.66
73566;BME280;61846;52.970;-3.168;2023-08-06T02:48:28;100693.07;;;12.98;53.73
73566;BME280;61846;52.970;-3.168;2023-08-06T02:50:56;100693.11;;;13.50;52.96
73566;BME280;61846;52.970;-3.168;2023-08-06T02:53:19;100689.77;;;12.99;54.16
73566;BME280;61846;52.970;-3.168;2023-08-06T02:55:46;100691.42;;;12.33;55.92
73566;BME280;61846;52.970;-3.168;2023-08-06T02:58:10;100690.26;;;12.68;55.06
73566;BME280;61846;52.970;-3.168;2023-08-06T03:00:36;100687.11;;;12.60;55.96
73566;BME280;61846;52.970;-3.168;2023-08-06T03:03:01;100689.72;;;12.13;57.63
73566;BME280;61846;52.970;-3.168;2023-08-06T03:05:27;100683.75;;;12.27;56.99
73566;BME280;61846;52.970;-3.168;2023-08-06T03:07:52;100683.44;;;11.60;58.61
73566;BME280;61846;52.970;-3.168;2023-08-06T03:10:18;100681.05;;;12.32;57.04
73566;BME280;61846;52.970;-3.168;2023-08-06T03:12:43;100682.19;;;12.67;55.77
73566;BME280;61846;52.970;-3.168;2023-08-06T03:15:09;100683.67;;;12.00;57.22
73566;BME280;61846;52.970;-3.168;2023-08-06T03:17:34;100681.52;;;12.05;57.04
73566;BME280;61846;52.970;-3.168;2023-08-06T03:20:00;100681.65;;;12.28;56.79
73566;BME280;61846;52.970;-3.168;2023-08-06T03:22:25;100679.73;;;12.79;54.59
73566;BME280;61846;52.970;-3.168;2023-08-06T03:24:51;100682.47;;;12.24;56.34
73566;BME280;61846;52.970;-3.168;2023-08-06T03:27:16;100683.35;;;12.30;56.35
73566;BME280;61846;52.970;-3.168;2023-08-06T03:29:42;100685.98;;;12.20;55.72
73566;BME280;61846;52.970;-3.168;2023-08-06T03:32:08;100686.49;;;12.93;54.16
73566;BME280;61846;52.970;-3.168;2023-08-06T03:34:33;100687.05;;;13.12;53.86
73566;BME280;61846;52.970;-3.168;2023-08-06T03:36:58;100688.62;;;13.15;53.97
73566;BME280;61846;52.970;-3.168;2023-08-06T03:39:24;100692.08;;;13.20;52.97
73566;BME280;61846;52.970;-3.168;2023-08-06T03:41:49;100685.65;;;12.45;55.61
73566;BME280;61846;52.970;-3.168;2023-08-06T03:44:14;100686.74;;;12.50;55.55
73566;BME280;61846;52.970;-3.168;2023-08-06T03:46:40;100689.12;;;13.03;54.77
73566;BME280;61846;52.970;-3.168;2023-08-06T03:49:05;100685.29;;;12.45;55.17
73566;BME280;61846;52.970;-3.168;2023-08-06T03:51:31;100688.96;;;12.33;55.83
73566;BME280;61846;52.970;-3.168;2023-08-06T03:53:56;100694.02;;;11.88;56.61
73566;BME280;61846;52.970;-3.168;2023-08-06T03:56:22;100693.45;;;12.06;56.50
73566;BME280;61846;52.970;-3.168;2023-08-06T03:58:47;100695.61;;;12.31;56.99
73566;BME280;61846;52.970;-3.168;2023-08-06T04:01:13;100695.45;;;11.65;58.20
73566;BME280;61846;52.970;-3.168;2023-08-06T04:03:38;100700.72;;;11.69;58.65
73566;BME280;61846;52.970;-3.168;2023-08-06T04:06:04;100703.60;;;11.53;58.65
73566;BME280;61846;52.970;-3.168;2023-08-06T04:08:29;100704.93;;;11.73;57.31
73566;BME280;61846;52.970;-3.168;2023-08-06T04:10:55;100708.18;;;12.24;56.14
73566;BME280;61846;52.970;-3.168;2023-08-06T04:13:20;100714.13;;;12.78;55.45
73566;BME280;61846;52.970;-3.168;2023-08-06T04:15:46;100719.85;;;12.33;55.93
73566;BME280;61846;52.970;-3.168;2023-08-06T04:18:11;100724.75;;;11.74;58.18
73566;BME280;61846;52.970;-3.168;2023-08-06T04:20:43;100724.24;;;11.89;58.52
73566;BME280;61846;52.970;-3.168;2023-08-06T04:23:06;100728.51;;;11.61;58.59
73566;BME280;61846;52.970;-3.168;2023-08-06T04:25:28;100728.77;;;11.97;57.08
73566;BME280;61846;52.970;-3.168;2023-08-06T04:27:53;100732.80;;;12.01;57.81
73566;BME280;61846;52.970;-3.168;2023-08-06T04:30:19;100730.61;;;12.28;56.37
73566;BME280;61846;52.970;-3.168;2023-08-06T04:32:44;100735.20;;;12.16;56.89
73566;BME280;61846;52.970;-3.168;2023-08-06T04:35:10;100732.99;;;12.14;56.27
73566;BME280;61846;52.970;-3.168;2023-08-06T04:37:35;100731.04;;;12.47;56.17
73566;BME280;61846;52.970;-3.168;2023-08-06T04:40:01;100734.43;;;11.64;59.04
73566;BME280;61846;52.970;-3.168;2023-08-06T04:42:26;100737.47;;;11.43;59.73
73566;BME280;61846;52.970;-3.168;2023-08-06T04:44:52;100739.71;;;11.66;58.70
73566;BME280;61846;52.970;-3.168;2023-08-06T04:47:17;100738.54;;;11.08;59.46
73566;BME280;61846;52.970;-3.168;2023-08-06T04:49:43;100742.23;;;11.11;60.78
73566;BME280;61846;52.970;-3.168;2023-08-06T04:52:08;100741.63;;;11.68;59.46
73566;BME280;61846;52.970;-3.168;2023-08-06T04:54:34;100748.10;;;11.16;59.98
73566;BME280;61846;52.970;-3.168;2023-08-06T04:56:59;100744.36;;;12.15;57.44
73566;BME280;61846;52.970;-3.168;2023-08-06T04:59:25;100746.28;;;11.80;57.95
73566;BME280;61846;52.970;-3.168;2023-08-06T05:01:50;100747.39;;;11.70;58.69
73566;BME280;61846;52.970;-3.168;2023-08-06T05:04:16;100748.69;;;11.57;58.80
73566;BME280;61846;52.970;-3.168;2023-08-06T05:06:41;100749.97;;;11.72;59.54
73566;BME280;61846;52.970;-3.168;2023-08-06T05:09:07;100750.49;;;11.62;58.79
73566;BME280;61846;52.970;-3.168;2023-08-06T05:11:32;100747.42;;;12.49;56.50
73566;BME280;61846;52.970;-3.168;2023-08-06T05:13:58;100752.56;;;11.76;58.34
73566;BME280;61846;52.970;-3.168;2023-08-06T05:16:24;100749.11;;;12.21;56.42
73566;BME280;61846;52.970;-3.168;2023-08-06T05:18:49;100750.57;;;12.82;55.48
73566;BME280;61846;52.970;-3.168;2023-08-06T05:21:14;100750.92;;;12.64;55.61
73566;BME280;61846;52.970;-3.168;2023-08-06T05:23:40;100759.18;;;12.86;54.69
73566;BME280;61846;52.970;-3.168;2023-08-06T05:26:05;100758.74;;;13.37;53.42
73566;BME280;61846;52.970;-3.168;2023-08-06T05:28:31;100756.97;;;14.08;52.00
73566;BME280;61846;52.970;-3.168;2023-08-06T05:30:56;100758.17;;;14.34;50.41
73566;BME280;61846;52.970;-3.168;2023-08-06T05:33:22;100757.56;;;14.20;50.56
73566;BME280;61846;52.970;-3.168;2023-08-06T05:35:49;100756.48;;;13.77;51.49
73566;BME280;61846;52.970;-3.168;2023-08-06T05:38:13;100757.73;;;13.89;51.96
73566;BME280;61846;52.970;-3.168;2023-08-06T05:40:38;100763.50;;;14.05;55.62
73566;BME280;61846;52.970;-3.168;2023-08-06T05:43:04;100760.95;;;14.42;49.87
73566;BME280;61846;52.970;-3.168;2023-08-06T05:45:29;100761.14;;;13.51;51.93
73566;BME280;61846;52.970;-3.168;2023-08-06T05:47:55;100766.19;;;13.35;52.75
73566;BME280;61846;52.970;-3.168;2023-08-06T05:50:20;100769.24;;;13.33;52.52
73566;BME280;61846;52.970;-3.168;2023-08-06T05:52:45;100773.88;;;13.52;52.49
73566;BME280;61846;52.970;-3.168;2023-08-06T05:55:11;100776.25;;;12.94;54.07
73566;BME280;61846;52.970;-3.168;2023-08-06T05:57:36;100780.60;;;11.37;59.13
73566;BME280;61846;52.970;-3.168;2023-08-06T06:00:02;100780.00;;;11.19;59.04
73566;BME280;61846;52.970;-3.168;2023-08-06T06:02:27;100779.98;;;11.29;59.78
73566;BME280;61846;52.970;-3.168;2023-08-06T06:04:53;100788.41;;;12.29;56.60
73566;BME280;61846;52.970;-3.168;2023-08-06T06:07:18;100790.09;;;11.54;58.23
73566;BME280;61846;52.970;-3.168;2023-08-06T06:09:44;100792.77;;;12.19;56.63
73566;BME280;61846;52.970;-3.168;2023-08-06T06:12:10;100794.27;;;11.71;57.73
73566;BME280;61846;52.970;-3.168;2023-08-06T06:14:35;100792.53;;;11.82;57.43
73566;BME280;61846;52.970;-3.168;2023-08-06T06:17:00;100792.28;;;12.30;56.79
73566;BME280;61846;52.970;-3.168;2023-08-06T06:19:26;100791.25;;;12.40;55.24
73566;BME280;61846;52.970;-3.168;2023-08-06T06:21:51;100792.09;;;12.71;55.04
73566;BME280;61846;52.970;-3.168;2023-08-06T06:24:17;100796.60;;;11.78;56.27
73566;BME280;61846;52.970;-3.168;2023-08-06T06:26:42;100800.86;;;12.04;56.07
73566;BME280;61846;52.970;-3.168;2023-08-06T06:29:08;100799.99;;;12.17;56.41
73566;BME280;61846;52.970;-3.168;2023-08-06T06:31:33;100800.29;;;12.97;53.90
73566;BME280;61846;52.970;-3.168;2023-08-06T06:33:59;100801.36;;;12.28;55.56
73566;BME280;61846;52.970;-3.168;2023-08-06T06:36:25;100804.25;;;12.50;54.94
73566;BME280;61846;52.970;-3.168;2023-08-06T06:38:50;100803.22;;;12.59;54.85
73566;BME280;61846;52.970;-3.168;2023-08-06T06:41:15;100804.39;;;12.49;54.58
73566;BME280;61846;52.970;-3.168;2023-08-06T06:43:41;100803.86;;;12.06;57.28
73566;BME280;61846;52.970;-3.168;2023-08-06T06:46:06;100803.44;;;12.17;56.27
73566;BME280;61846;52.970;-3.168;2023-08-06T06:48:33;100808.01;;;11.93;57.33
73566;BME280;61846;52.970;-3.168;2023-08-06T06:50:57;100810.23;;;12.08;56.99
73566;BME280;61846;52.970;-3.168;2023-08-06T06:53:23;100811.24;;;12.32;56.28
73566;BME280;61846;52.970;-3.168;2023-08-06T06:55:48;100813.21;;;13.01;54.37
73566;BME280;61846;52.970;-3.168;2023-08-06T06:58:14;100809.83;;;12.97;54.35
73566;BME280;61846;52.970;-3.168;2023-08-06T07:00:39;100812.34;;;13.14;53.48
73566;BME280;61846;52.970;-3.168;2023-08-06T07:03:05;100813.04;;;12.78;55.03
73566;BME280;61846;52.970;-3.168;2023-08-06T07:05:30;100813.86;;;14.04;51.83
73566;BME280;61846;52.970;-3.168;2023-08-06T07:07:56;100821.18;;;13.84;51.85
73566;BME280;61846;52.970;-3.168;2023-08-06T07:10:21;100819.04;;;14.51;50.28
73566;BME280;61846;52.970;-3.168;2023-08-06T07:12:46;100816.30;;;15.16;50.20
73566;BME280;61846;52.970;-3.168;2023-08-06T07:15:12;100820.29;;;14.63;49.55
73566;BME280;61846;52.970;-3.168;2023-08-06T07:17:37;100820.34;;;15.46;48.78
73566;BME280;61846;52.970;-3.168;2023-08-06T07:20:04;100823.44;;;15.38;48.85
73566;BME280;61846;52.970;-3.168;2023-08-06T07:22:28;100821.39;;;14.12;49.67
73566;BME280;61846;52.970;-3.168;2023-08-06T07:24:54;100825.74;;;14.30;50.33
73566;BME280;61846;52.970;-3.168;2023-08-06T07:27:19;100822.14;;;15.30;50.40
73566;BME280;61846;52.970;-3.168;2023-08-06T07:29:45;100825.90;;;15.12;49.69
73566;BME280;61846;52.970;-3.168;2023-08-06T07:32:10;100822.85;;;15.81;48.52
73566;BME280;61846;52.970;-3.168;2023-08-06T07:34:36;100826.21;;;16.04;47.62
73566;BME280;61846;52.970;-3.168;2023-08-06T07:37:01;100829.28;;;15.06;48.88
73566;BME280;61846;52.970;-3.168;2023-08-06T07:39:26;100829.87;;;15.94;47.44
73566;BME280;61846;52.970;-3.168;2023-08-06T07:41:52;100830.30;;;16.43;47.52
73566;BME280;61846;52.970;-3.168;2023-08-06T07:44:17;100830.48;;;15.95;47.22
73566;BME280;61846;52.970;-3.168;2023-08-06T07:46:43;100829.01;;;15.74;47.82
73566;BME280;61846;52.970;-3.168;2023-08-06T07:49:09;100828.30;;;16.28;47.58
73566;BME280;61846;52.970;-3.168;2023-08-06T07:51:34;100829.26;;;16.83;46.71
73566;BME280;61846;52.970;-3.168;2023-08-06T07:53:59;100829.84;;;16.63;46.13
73566;BME280;61846;52.970;-3.168;2023-08-06T07:56:25;100825.49;;;15.63;48.60
73566;BME280;61846;52.970;-3.168;2023-08-06T07:58:50;100825.28;;;16.71;46.99
73566;BME280;61846;52.970;-3.168;2023-08-06T08:01:15;100826.01;;;17.01;45.56
73566;BME280;61846;52.970;-3.168;2023-08-06T08:03:41;100828.73;;;16.87;43.62
73566;BME280;61846;52.970;-3.168;2023-08-06T08:06:06;100832.51;;;16.85;46.61
73566;BME280;61846;52.970;-3.168;2023-08-06T08:08:31;100834.12;;;17.18;46.14
73566;BME280;61846;52.970;-3.168;2023-08-06T08:10:57;100827.67;;;17.66;44.65
73566;BME280;61846;52.970;-3.168;2023-08-06T08:13:22;100833.79;;;17.42;43.52
73566;BME280;61846;52.970;-3.168;2023-08-06T08:15:48;100829.28;;;17.05;42.92
73566;BME280;61846;52.970;-3.168;2023-08-06T08:18:13;100829.08;;;17.82;42.97
73566;BME280;61846;52.970;-3.168;2023-08-06T08:20:38;100828.16;;;17.82;41.54
73566;BME280;61846;52.970;-3.168;2023-08-06T08:23:04;100831.66;;;17.73;42.61
73566;BME280;61846;52.970;-3.168;2023-08-06T08:25:29;100836.24;;;17.35;41.68
73566;BME280;61846;52.970;-3.168;2023-08-06T08:27:55;100838.29;;;17.63;43.00
73566;BME280;61846;52.970;-3.168;2023-08-06T08:30:20;100840.63;;;17.99;41.89
73566;BME280;61846;52.970;-3.168;2023-08-06T08:32:45;100835.49;;;17.71;41.68
73566;BME280;61846;52.970;-3.168;2023-08-06T08:35:11;100833.56;;;18.31;39.80
73566;BME280;61846;52.970;-3.168;2023-08-06T08:37:36;100834.33;;;18.51;41.58
73566;BME280;61846;52.970;-3.168;2023-08-06T08:40:02;100830.22;;;18.69;40.75
73566;BME280;61846;52.970;-3.168;2023-08-06T08:42:27;100828.00;;;18.37;40.69
73566;BME280;61846;52.970;-3.168;2023-08-06T08:44:54;100824.92;;;19.24;40.65
73566;BME280;61846;52.970;-3.168;2023-08-06T08:47:17;100828.00;;;19.01;41.25
73566;BME280;61846;52.970;-3.168;2023-08-06T08:49:43;100830.64;;;18.43;40.39
73566;BME280;61846;52.970;-3.168;2023-08-06T08:52:09;100830.84;;;18.91;42.13
73566;BME280;61846;52.970;-3.168;2023-08-06T08:54:34;100828.45;;;18.96;41.38
73566;BME280;61846;52.970;-3.168;2023-08-06T08:56:59;100831.72;;;18.98;39.19
73566;BME280;61846;52.970;-3.168;2023-08-06T08:59:24;100831.56;;;19.67;39.16
73566;BME280;61846;52.970;-3.168;2023-08-06T09:01:50;100836.77;;;19.51;38.89
73566;BME280;61846;52.970;-3.168;2023-08-06T09:04:15;100843.46;;;18.66;39.98
73566;BME280;61846;52.970;-3.168;2023-08-06T09:06:41;100848.07;;;18.71;41.39
73566;BME280;61846;52.970;-3.168;2023-08-06T09:09:10;100843.79;;;18.62;41.03
73566;BME280;61846;52.970;-3.168;2023-08-06T09:11:32;100848.94;;;18.75;39.76
73566;BME280;61846;52.970;-3.168;2023-08-06T09:13:56;100850.02;;;18.69;40.71
73566;BME280;61846;52.970;-3.168;2023-08-06T09:16:21;100847.59;;;18.54;42.08
73566;BME280;61846;52.970;-3.168;2023-08-06T09:18:47;100841.39;;;19.19;41.39
73566;BME280;61846;52.970;-3.168;2023-08-06T09:21:14;100838.15;;;19.23;40.75
73566;BME280;61846;52.970;-3.168;2023-08-06T09:23:37;100838.14;;;19.32;43.64
73566;BME280;61846;52.970;-3.168;2023-08-06T09:26:03;100839.48;;;20.16;40.16
73566;BME280;61846;52.970;-3.168;2023-08-06T09:28:36;100833.29;;;20.50;38.06
73566;BME280;61846;52.970;-3.168;2023-08-06T09:30:53;100836.10;;;20.61;38.46
73566;BME280;61846;52.970;-3.168;2023-08-06T09:33:19;100840.70;;;20.40;37.08
73566;BME280;61846;52.970;-3.168;2023-08-06T09:35:46;100843.90;;;20.32;39.00
73566;BME280;61846;52.970;-3.168;2023-08-06T09:38:10;100852.09;;;20.59;39.21
73566;BME280;61846;52.970;-3.168;2023-08-06T09:40:35;100859.27;;;20.07;38.57
73566;BME280;61846;52.970;-3.168;2023-08-06T09:43:00;100867.07;;;19.71;38.72
73566;BME280;61846;52.970;-3.168;2023-08-06T09:45:31;100859.45;;;20.27;39.02
73566;BME280;61846;52.970;-3.168;2023-08-06T09:47:56;100861.34;;;19.80;39.10
73566;BME280;61846;52.970;-3.168;2023-08-06T09:50:17;100860.33;;;20.59;36.77
73566;BME280;61846;52.970;-3.168;2023-08-06T09:52:42;100863.11;;;20.66;38.62
73566;BME280;61846;52.970;-3.168;2023-08-06T09:55:07;100858.59;;;20.86;37.19
73566;BME280;61846;52.970;-3.168;2023-08-06T09:57:32;100860.89;;;20.89;37.29
73566;BME280;61846;52.970;-3.168;2023-08-06T09:59:57;100862.99;;;21.48;35.89
73566;BME280;61846;52.970;-3.168;2023-08-06T10:02:25;100866.69;;;20.84;34.11
73566;BME280;61846;52.970;-3.168;2023-08-06T10:04:48;100869.83;;;21.06;34.95
73566;BME280;61846;52.970;-3.168;2023-08-06T10:07:14;100863.72;;;21.65;36.36
73566;BME280;61846;52.970;-3.168;2023-08-06T10:09:39;100866.21;;;22.01;33.82
73566;BME280;61846;52.970;-3.168;2023-08-06T10:12:05;100874.69;;;20.18;35.83
73566;BME280;61846;52.970;-3.168;2023-08-06T10:14:33;100890.80;;;21.05;34.55
73566;BME280;61846;52.970;-3.168;2023-08-06T10:16:57;100898.41;;;20.55;36.47
73566;BME280;61846;52.970;-3.168;2023-08-06T10:19:20;100900.87;;;20.41;36.50
73566;BME280;61846;52.970;-3.168;2023-08-06T10:24:14;100901.47;;;20.88;36.89
73566;BME280;61846;52.970;-3.168;2023-08-06T10:26:36;100898.36;;;20.45;36.27
73566;BME280;61846;52.970;-3.168;2023-08-06T10:29:01;100895.68;;;19.25;34.59
73566;BME280;61846;52.970;-3.168;2023-08-06T10:33:52;100895.09;;;19.75;37.07
73566;BME280;61846;52.970;-3.168;2023-08-06T10:36:18;100891.22;;;19.50;40.33
73566;BME280;61846;52.970;-3.168;2023-08-06T10:38:47;100887.86;;;20.11;35.44
73566;BME280;61846;52.970;-3.168;2023-08-06T10:41:08;100882.71;;;20.54;37.37
73566;BME280;61846;52.970;-3.168;2023-08-06T10:43:35;100884.78;;;20.80;35.88
73566;BME280;61846;52.970;-3.168;2023-08-06T10:46:01;100895.37;;;20.26;37.47
73566;BME280;61846;52.970;-3.168;2023-08-06T10:48:29;100899.93;;;20.63;37.75
73566;BME280;61846;52.970;-3.168;2023-08-06T10:50:49;100902.00;;;20.37;37.79
73566;BME280;61846;52.970;-3.168;2023-08-06T10:53:14;100904.48;;;19.90;40.04
73566;BME280;61846;52.970;-3.168;2023-08-06T10:55:40;100897.49;;;20.94;36.60
73566;BME280;61846;52.970;-3.168;2023-08-06T10:58:05;100896.37;;;20.84;39.72
73566;BME280;61846;52.970;-3.168;2023-08-06T11:00:30;100891.30;;;20.79;37.46
73566;BME280;61846;52.970;-3.168;2023-08-06T11:02:56;100893.48;;;21.22;36.59
73566;BME280;61846;52.970;-3.168;2023-08-06T11:05:21;100898.21;;;21.03;36.85
73566;BME280;61846;52.970;-3.168;2023-08-06T11:07:46;100906.68;;;20.69;37.55
73566;BME280;61846;52.970;-3.168;2023-08-06T11:10:13;100899.81;;;21.64;37.87
73566;BME280;61846;52.970;-3.168;2023-08-06T11:12:38;100898.20;;;21.35;39.09
73566;BME280;61846;52.970;-3.168;2023-08-06T11:15:04;100895.89;;;21.20;36.29
73566;BME280;61846;52.970;-3.168;2023-08-06T11:17:29;100890.39;;;20.49;35.27
73566;BME280;61846;52.970;-3.168;2023-08-06T11:19:53;100894.79;;;20.38;34.41
73566;BME280;61846;52.970;-3.168;2023-08-06T11:22:18;100900.65;;;20.93;36.50
73566;BME280;61846;52.970;-3.168;2023-08-06T11:24:44;100903.02;;;20.73;36.20
73566;BME280;61846;52.970;-3.168;2023-08-06T11:27:13;100907.21;;;20.46;35.68
73566;BME280;61846;52.970;-3.168;2023-08-06T11:29:37;100903.61;;;20.85;34.42
73566;BME280;61846;52.970;-3.168;2023-08-06T11:32:03;100899.57;;;20.40;36.98
73566;BME280;61846;52.970;-3.168;2023-08-06T11:34:25;100895.54;;;20.92;37.98
73566;BME280;61846;52.970;-3.168;2023-08-06T11:36:50;100889.88;;;21.02;37.53
73566;BME280;61846;52.970;-3.168;2023-08-06T11:39:15;100891.00;;;22.09;36.42
73566;BME280;61846;52.970;-3.168;2023-08-06T11:41:41;100896.74;;;21.17;33.13
73566;BME280;61846;52.970;-3.168;2023-08-06T11:44:06;100899.12;;;20.29;35.90
73566;BME280;61846;52.970;-3.168;2023-08-06T11:48:58;100889.64;;;20.83;34.81
73566;BME280;61846;52.970;-3.168;2023-08-06T11:51:23;100883.52;;;21.71;34.48
73566;BME280;61846;52.970;-3.168;2023-08-06T11:53:49;100880.91;;;20.53;33.55
73566;BME280;61846;52.970;-3.168;2023-08-06T11:56:13;100888.09;;;21.30;36.63
73566;BME280;61846;52.970;-3.168;2023-08-06T11:58:38;100881.40;;;22.31;32.55
73566;BME280;61846;52.970;-3.168;2023-08-06T12:01:03;100879.11;;;21.74;33.14
73566;BME280;61846;52.970;-3.168;2023-08-06T12:03:29;100889.74;;;21.79;33.32
73566;BME280;61846;52.970;-3.168;2023-08-06T12:05:54;100895.28;;;20.11;34.47
73566;BME280;61846;52.970;-3.168;2023-08-06T12:08:19;100895.52;;;22.06;34.85
73566;BME280;61846;52.970;-3.168;2023-08-06T12:10:44;100894.02;;;21.10;33.78
73566;BME280;61846;52.970;-3.168;2023-08-06T12:13:09;100890.63;;;21.97;35.05
73566;BME280;61846;52.970;-3.168;2023-08-06T12:15:35;100889.37;;;22.14;35.10
73566;BME280;61846;52.970;-3.168;2023-08-06T12:18:00;100886.26;;;22.90;33.96
73566;BME280;61846;52.970;-3.168;2023-08-06T12:20:26;100882.59;;;22.21;31.71
73566;BME280;61846;52.970;-3.168;2023-08-06T12:22:51;100885.72;;;22.09;33.47
73566;BME280;61846;52.970;-3.168;2023-08-06T12:25:16;100878.80;;;21.47;29.95
73566;BME280;61846;52.970;-3.168;2023-08-06T12:27:44;100897.95;;;20.67;32.90
73566;BME280;61846;52.970;-3.168;2023-08-06T12:30:07;100894.11;;;21.70;34.01
73566;BME280;61846;52.970;-3.168;2023-08-06T12:32:32;100894.07;;;21.97;31.12
73566;BME280;61846;52.970;-3.168;2023-08-06T12:34:57;100893.69;;;22.41;33.41
73566;BME280;61846;52.970;-3.168;2023-08-06T12:37:23;100891.26;;;22.30;29.64